Terminal Aerodrome Forecast
Issued by NWS

Home | Current Version | Previous Version | Text Only | Print | Product List | Glossary On
Versions: 1 2 3 4 5 6 7 8 9 10 11 12 13 14 15 16 17 18 19 20 21
000
FTUS43 KAPX 282300
TAFMBL
TAF
KMBL 282323Z 2900/2924 VRB03KT P6SM BKN200
     FM291000 12005KT 6SM -RA OVC035
     FM291500 15007KT P6SM VCSH OVC040
     FM291800 17008KT P6SM BKN050
      AMD LTD TO CLD VIS AND WIND=

USA.gov is the U.S. government's official web portal to all federal, state and local government web resources and services.